sensor_id;sensor_type;location;lat;lon;timestamp;P1;durP1;ratioP1;P2;durP2;ratioP2
7173;SDS011;3628;48.654;8.932;2022-07-15T00:02:19;2.10;;;1.23;;
7173;SDS011;3628;48.654;8.932;2022-07-15T00:04:44;2.28;;;1.42;;
7173;SDS011;3628;48.654;8.932;2022-07-15T00:07:10;4.88;;;1.40;;
7173;SDS011;3628;48.654;8.932;2022-07-15T00:09:36;1.63;;;1.25;;
7173;SDS011;3628;48.654;8.932;2022-07-15T00:12:20;2.03;;;1.30;;
7173;SDS011;3628;48.654;8.932;2022-07-15T00:14:46;5.78;;;1.20;;
7173;SDS011;3628;48.654;8.932;2022-07-15T00:17:11;2.65;;;1.55;;
7173;SDS011;3628;48.654;8.932;2022-07-15T00:19:37;2.22;;;1.38;;
7173;SDS011;3628;48.654;8.932;2022-07-15T00:22:03;2.50;;;1.33;;
7173;SDS011;3628;48.654;8.932;2022-07-15T00:24:29;3.92;;;1.40;;
7173;SDS011;3628;48.654;8.932;2022-07-15T00:26:55;2.75;;;1.55;;
7173;SDS011;3628;48.654;8.932;2022-07-15T00:29:21;2.15;;;1.52;;
7173;SDS011;3628;48.654;8.932;2022-07-15T00:31:47;2.75;;;1.10;;
7173;SDS011;3628;48.654;8.932;2022-07-15T00:34:13;4.57;;;1.52;;
7173;SDS011;3628;48.654;8.932;2022-07-15T00:36:38;3.80;;;1.33;;
7173;SDS011;3628;48.654;8.932;2022-07-15T00:39:04;2.43;;;1.40;;
7173;SDS011;3628;48.654;8.932;2022-07-15T00:41:37;3.35;;;1.38;;
7173;SDS011;3628;48.654;8.932;2022-07-15T00:44:03;3.45;;;1.42;;
7173;SDS011;3628;48.654;8.932;2022-07-15T00:46:29;2.83;;;1.77;;
7173;SDS011;3628;48.654;8.932;2022-07-15T00:48:55;4.00;;;1.85;;
7173;SDS011;3628;48.654;8.932;2022-07-15T00:51:22;2.72;;;1.20;;
7173;SDS011;3628;48.654;8.932;2022-07-15T00:53:48;2.47;;;1.25;;
7173;SDS011;3628;48.654;8.932;2022-07-15T00:56:14;3.15;;;1.33;;
7173;SDS011;3628;48.654;8.932;2022-07-15T00:58:43;1.50;;;1.25;;
7173;SDS011;3628;48.654;8.932;2022-07-15T01:01:10;3.40;;;1.60;;
7173;SDS011;3628;48.654;8.932;2022-07-15T01:03:35;2.05;;;1.42;;
7173;SDS011;3628;48.654;8.932;2022-07-15T01:06:02;2.00;;;1.40;;
7173;SDS011;3628;48.654;8.932;2022-07-15T01:08:28;2.60;;;1.40;;
7173;SDS011;3628;48.654;8.932;2022-07-15T01:10:54;2.47;;;1.50;;
7173;SDS011;3628;48.654;8.932;2022-07-15T01:13:21;2.42;;;1.30;;
7173;SDS011;3628;48.654;8.932;2022-07-15T01:15:47;3.08;;;1.30;;
7173;SDS011;3628;48.654;8.932;2022-07-15T01:18:14;3.78;;;1.50;;
7173;SDS011;3628;48.654;8.932;2022-07-15T01:20:43;2.88;;;1.50;;
7173;SDS011;3628;48.654;8.932;2022-07-15T01:23:13;3.72;;;1.33;;
7173;SDS011;3628;48.654;8.932;2022-07-15T01:25:39;2.38;;;1.52;;
7173;SDS011;3628;48.654;8.932;2022-07-15T01:28:06;1.73;;;1.20;;
7173;SDS011;3628;48.654;8.932;2022-07-15T01:30:33;3.63;;;1.52;;
7173;SDS011;3628;48.654;8.932;2022-07-15T01:32:59;4.50;;;1.60;;
7173;SDS011;3628;48.654;8.932;2022-07-15T01:35:24;2.63;;;1.40;;
7173;SDS011;3628;48.654;8.932;2022-07-15T01:37:50;4.38;;;1.40;;
7173;SDS011;3628;48.654;8.932;2022-07-15T01:40:16;3.28;;;1.60;;
7173;SDS011;3628;48.654;8.932;2022-07-15T01:42:41;3.20;;;1.35;;
7173;SDS011;3628;48.654;8.932;2022-07-15T01:45:08;1.48;;;1.30;;
7173;SDS011;3628;48.654;8.932;2022-07-15T01:47:34;5.20;;;1.60;;
7173;SDS011;3628;48.654;8.932;2022-07-15T01:50:09;1.67;;;1.30;;
7173;SDS011;3628;48.654;8.932;2022-07-15T01:52:35;1.58;;;1.23;;
7173;SDS011;3628;48.654;8.932;2022-07-15T01:55:01;2.60;;;1.30;;
7173;SDS011;3628;48.654;8.932;2022-07-15T01:57:27;3.63;;;1.35;;
7173;SDS011;3628;48.654;8.932;2022-07-15T01:59:53;3.00;;;1.30;;
7173;SDS011;3628;48.654;8.932;2022-07-15T02:02:19;2.55;;;1.52;;
7173;SDS011;3628;48.654;8.932;2022-07-15T02:04:44;2.40;;;1.50;;
7173;SDS011;3628;48.654;8.932;2022-07-15T02:07:10;1.70;;;1.60;;
7173;SDS011;3628;48.654;8.932;2022-07-15T02:09:35;4.78;;;1.50;;
7173;SDS011;3628;48.654;8.932;2022-07-15T02:12:01;2.45;;;1.40;;
7173;SDS011;3628;48.654;8.932;2022-07-15T02:14:27;1.80;;;1.20;;
7173;SDS011;3628;48.654;8.932;2022-07-15T02:16:52;2.10;;;1.38;;
7173;SDS011;3628;48.654;8.932;2022-07-15T02:19:18;3.92;;;1.70;;
7173;SDS011;3628;48.654;8.932;2022-07-15T02:21:44;5.25;;;1.50;;
7173;SDS011;3628;48.654;8.932;2022-07-15T02:24:09;3.53;;;1.80;;
7173;SDS011;3628;48.654;8.932;2022-07-15T02:26:35;2.25;;;1.55;;
7173;SDS011;3628;48.654;8.932;2022-07-15T02:29:01;3.08;;;1.30;;
7173;SDS011;3628;48.654;8.932;2022-07-15T02:31:26;3.97;;;1.50;;
7173;SDS011;3628;48.654;8.932;2022-07-15T02:33:52;2.75;;;1.52;;
7173;SDS011;3628;48.654;8.932;2022-07-15T02:36:18;2.80;;;1.40;;
7173;SDS011;3628;48.654;8.932;2022-07-15T02:38:44;2.92;;;1.60;;
7173;SDS011;3628;48.654;8.932;2022-07-15T02:41:09;3.65;;;1.33;;
7173;SDS011;3628;48.654;8.932;2022-07-15T02:43:36;2.03;;;1.42;;
7173;SDS011;3628;48.654;8.932;2022-07-15T02:46:03;1.92;;;1.50;;
7173;SDS011;3628;48.654;8.932;2022-07-15T02:48:29;2.42;;;1.20;;
7173;SDS011;3628;48.654;8.932;2022-07-15T02:50:56;2.55;;;1.70;;
7173;SDS011;3628;48.654;8.932;2022-07-15T02:53:22;4.75;;;1.60;;
7173;SDS011;3628;48.654;8.932;2022-07-15T02:55:53;4.80;;;1.50;;
7173;SDS011;3628;48.654;8.932;2022-07-15T02:58:20;1.50;;;1.30;;
7173;SDS011;3628;48.654;8.932;2022-07-15T03:00:46;2.95;;;1.42;;
7173;SDS011;3628;48.654;8.932;2022-07-15T03:03:12;2.55;;;1.25;;
7173;SDS011;3628;48.654;8.932;2022-07-15T03:05:37;4.55;;;1.52;;
7173;SDS011;3628;48.654;8.932;2022-07-15T03:08:03;3.83;;;1.35;;
7173;SDS011;3628;48.654;8.932;2022-07-15T03:10:29;6.35;;;1.70;;
7173;SDS011;3628;48.654;8.932;2022-07-15T03:12:54;2.20;;;1.40;;
7173;SDS011;3628;48.654;8.932;2022-07-15T03:15:20;2.03;;;1.20;;
7173;SDS011;3628;48.654;8.932;2022-07-15T03:17:46;1.63;;;1.27;;
7173;SDS011;3628;48.654;8.932;2022-07-15T03:20:11;2.00;;;1.30;;
7173;SDS011;3628;48.654;8.932;2022-07-15T03:22:37;4.28;;;1.50;;
7173;SDS011;3628;48.654;8.932;2022-07-15T03:25:03;1.77;;;1.40;;
7173;SDS011;3628;48.654;8.932;2022-07-15T03:27:29;2.60;;;1.40;;
7173;SDS011;3628;48.654;8.932;2022-07-15T03:29:55;1.95;;;1.45;;
7173;SDS011;3628;48.654;8.932;2022-07-15T03:32:21;1.55;;;1.38;;
7173;SDS011;3628;48.654;8.932;2022-07-15T03:34:47;2.92;;;1.40;;
7173;SDS011;3628;48.654;8.932;2022-07-15T03:37:13;2.85;;;1.35;;
7173;SDS011;3628;48.654;8.932;2022-07-15T03:39:39;1.92;;;1.63;;
7173;SDS011;3628;48.654;8.932;2022-07-15T03:42:05;5.22;;;1.65;;
7173;SDS011;3628;48.654;8.932;2022-07-15T03:44:31;2.33;;;1.50;;
7173;SDS011;3628;48.654;8.932;2022-07-15T03:46:57;2.30;;;1.55;;
7173;SDS011;3628;48.654;8.932;2022-07-15T03:49:22;2.90;;;1.67;;
7173;SDS011;3628;48.654;8.932;2022-07-15T03:51:48;4.13;;;1.48;;
7173;SDS011;3628;48.654;8.932;2022-07-15T03:54:13;1.70;;;1.20;;
7173;SDS011;3628;48.654;8.932;2022-07-15T03:56:39;3.45;;;1.63;;
7173;SDS011;3628;48.654;8.932;2022-07-15T03:59:05;3.58;;;1.48;;
7173;SDS011;3628;48.654;8.932;2022-07-15T04:01:31;3.65;;;1.38;;
7173;SDS011;3628;48.654;8.932;2022-07-15T04:03:57;3.15;;;1.55;;
7173;SDS011;3628;48.654;8.932;2022-07-15T04:06:23;4.22;;;1.58;;
7173;SDS011;3628;48.654;8.932;2022-07-15T04:08:50;3.20;;;1.45;;
7173;SDS011;3628;48.654;8.932;2022-07-15T04:11:16;3.20;;;1.40;;
7173;SDS011;3628;48.654;8.932;2022-07-15T04:13:42;2.35;;;1.50;;
7173;SDS011;3628;48.654;8.932;2022-07-15T04:16:09;2.78;;;1.50;;
7173;SDS011;3628;48.654;8.932;2022-07-15T04:18:37;1.92;;;1.30;;
7173;SDS011;3628;48.654;8.932;2022-07-15T04:21:02;3.13;;;1.33;;
7173;SDS011;3628;48.654;8.932;2022-07-15T04:23:28;2.22;;;1.55;;
7173;SDS011;3628;48.654;8.932;2022-07-15T04:25:54;3.83;;;1.50;;
7173;SDS011;3628;48.654;8.932;2022-07-15T04:28:20;1.63;;;1.30;;
7173;SDS011;3628;48.654;8.932;2022-07-15T04:30:47;6.32;;;1.65;;
7173;SDS011;3628;48.654;8.932;2022-07-15T04:33:13;2.08;;;1.15;;
7173;SDS011;3628;48.654;8.932;2022-07-15T04:35:38;1.95;;;1.40;;
7173;SDS011;3628;48.654;8.932;2022-07-15T04:38:04;3.38;;;1.58;;
7173;SDS011;3628;48.654;8.932;2022-07-15T04:40:30;2.47;;;1.80;;
7173;SDS011;3628;48.654;8.932;2022-07-15T04:43:00;2.67;;;1.60;;
7173;SDS011;3628;48.654;8.932;2022-07-15T04:45:26;2.35;;;1.50;;
7173;SDS011;3628;48.654;8.932;2022-07-15T04:47:52;1.75;;;1.48;;
7173;SDS011;3628;48.654;8.932;2022-07-15T04:50:18;2.60;;;1.50;;
7173;SDS011;3628;48.654;8.932;2022-07-15T04:53:03;3.88;;;1.77;;
7173;SDS011;3628;48.654;8.932;2022-07-15T04:55:29;1.60;;;1.50;;
7173;SDS011;3628;48.654;8.932;2022-07-15T04:57:55;3.38;;;1.80;;
7173;SDS011;3628;48.654;8.932;2022-07-15T05:00:20;3.85;;;1.50;;
7173;SDS011;3628;48.654;8.932;2022-07-15T05:02:46;3.85;;;1.80;;
7173;SDS011;3628;48.654;8.932;2022-07-15T05:05:11;3.33;;;1.55;;
7173;SDS011;3628;48.654;8.932;2022-07-15T05:07:37;6.38;;;1.80;;
7173;SDS011;3628;48.654;8.932;2022-07-15T05:10:06;4.05;;;1.80;;
7173;SDS011;3628;48.654;8.932;2022-07-15T05:12:32;2.80;;;1.50;;
7173;SDS011;3628;48.654;8.932;2022-07-15T05:14:58;4.03;;;1.58;;
7173;SDS011;3628;48.654;8.932;2022-07-15T05:17:24;2.00;;;1.80;;
7173;SDS011;3628;48.654;8.932;2022-07-15T05:19:50;5.68;;;1.83;;
7173;SDS011;3628;48.654;8.932;2022-07-15T05:22:17;3.75;;;1.90;;
7173;SDS011;3628;48.654;8.932;2022-07-15T05:24:43;4.30;;;1.95;;
7173;SDS011;3628;48.654;8.932;2022-07-15T05:27:09;3.20;;;1.80;;
7173;SDS011;3628;48.654;8.932;2022-07-15T05:29:34;5.75;;;2.00;;
7173;SDS011;3628;48.654;8.932;2022-07-15T05:32:00;3.15;;;1.80;;
7173;SDS011;3628;48.654;8.932;2022-07-15T05:34:26;10.10;;;2.00;;
7173;SDS011;3628;48.654;8.932;2022-07-15T05:36:51;5.90;;;1.90;;
7173;SDS011;3628;48.654;8.932;2022-07-15T05:39:17;10.48;;;1.90;;
7173;SDS011;3628;48.654;8.932;2022-07-15T05:41:43;15.20;;;2.20;;
7173;SDS011;3628;48.654;8.932;2022-07-15T05:44:08;5.65;;;2.20;;
7173;SDS011;3628;48.654;8.932;2022-07-15T05:46:34;12.75;;;2.75;;
7173;SDS011;3628;48.654;8.932;2022-07-15T05:49:00;19.40;;;2.65;;
7173;SDS011;3628;48.654;8.932;2022-07-15T05:51:25;12.32;;;2.42;;
7173;SDS011;3628;48.654;8.932;2022-07-15T05:53:51;11.48;;;2.67;;
7173;SDS011;3628;48.654;8.932;2022-07-15T05:56:17;14.93;;;2.88;;
7173;SDS011;3628;48.654;8.932;2022-07-15T05:58:42;28.10;;;3.20;;
7173;SDS011;3628;48.654;8.932;2022-07-15T06:01:08;18.63;;;3.45;;
7173;SDS011;3628;48.654;8.932;2022-07-15T06:03:34;12.73;;;2.72;;
7173;SDS011;3628;48.654;8.932;2022-07-15T06:06:00;13.68;;;2.53;;
7173;SDS011;3628;48.654;8.932;2022-07-15T06:08:28;23.02;;;3.13;;
7173;SDS011;3628;48.654;8.932;2022-07-15T06:10:53;25.65;;;3.38;;
7173;SDS011;3628;48.654;8.932;2022-07-15T06:13:19;24.70;;;3.08;;
7173;SDS011;3628;48.654;8.932;2022-07-15T06:15:45;26.15;;;2.80;;
7173;SDS011;3628;48.654;8.932;2022-07-15T06:18:11;17.38;;;3.28;;
7173;SDS011;3628;48.654;8.932;2022-07-15T06:20:37;16.85;;;2.75;;
7173;SDS011;3628;48.654;8.932;2022-07-15T06:23:02;30.52;;;3.28;;
7173;SDS011;3628;48.654;8.932;2022-07-15T06:25:28;24.63;;;3.20;;
7173;SDS011;3628;48.654;8.932;2022-07-15T06:27:54;23.50;;;2.50;;
7173;SDS011;3628;48.654;8.932;2022-07-15T06:30:19;18.08;;;2.40;;
7173;SDS011;3628;48.654;8.932;2022-07-15T06:32:45;11.55;;;2.40;;
7173;SDS011;3628;48.654;8.932;2022-07-15T06:35:11;9.65;;;1.90;;
7173;SDS011;3628;48.654;8.932;2022-07-15T06:37:36;16.05;;;2.13;;
7173;SDS011;3628;48.654;8.932;2022-07-15T06:40:03;10.15;;;1.98;;
7173;SDS011;3628;48.654;8.932;2022-07-15T06:42:29;10.55;;;2.00;;
7173;SDS011;3628;48.654;8.932;2022-07-15T06:44:54;8.68;;;1.65;;
7173;SDS011;3628;48.654;8.932;2022-07-15T06:47:20;3.83;;;1.35;;
7173;SDS011;3628;48.654;8.932;2022-07-15T06:49:46;3.97;;;1.30;;
7173;SDS011;3628;48.654;8.932;2022-07-15T06:52:14;8.73;;;1.52;;
7173;SDS011;3628;48.654;8.932;2022-07-15T06:54:39;4.60;;;1.30;;
7173;SDS011;3628;48.654;8.932;2022-07-15T06:57:05;5.05;;;1.60;;
7173;SDS011;3628;48.654;8.932;2022-07-15T06:59:30;3.88;;;1.38;;
7173;SDS011;3628;48.654;8.932;2022-07-15T07:01:56;6.13;;;1.63;;
7173;SDS011;3628;48.654;8.932;2022-07-15T07:04:22;2.30;;;1.10;;
7173;SDS011;3628;48.654;8.932;2022-07-15T07:06:47;3.72;;;1.30;;
7173;SDS011;3628;48.654;8.932;2022-07-15T07:09:13;3.67;;;1.15;;
7173;SDS011;3628;48.654;8.932;2022-07-15T07:11:39;2.35;;;1.45;;
7173;SDS011;3628;48.654;8.932;2022-07-15T07:14:05;2.85;;;0.98;;
7173;SDS011;3628;48.654;8.932;2022-07-15T07:16:31;1.80;;;1.10;;
7173;SDS011;3628;48.654;8.932;2022-07-15T07:18:57;3.33;;;1.05;;
7173;SDS011;3628;48.654;8.932;2022-07-15T07:21:22;2.08;;;1.27;;
7173;SDS011;3628;48.654;8.932;2022-07-15T07:23:48;1.60;;;1.00;;
7173;SDS011;3628;48.654;8.932;2022-07-15T07:26:14;3.53;;;1.10;;
7173;SDS011;3628;48.654;8.932;2022-07-15T07:28:40;4.28;;;0.90;;
7173;SDS011;3628;48.654;8.932;2022-07-15T07:31:07;1.10;;;0.90;;
7173;SDS011;3628;48.654;8.932;2022-07-15T07:33:33;1.17;;;0.90;;
7173;SDS011;3628;48.654;8.932;2022-07-15T07:35:59;3.03;;;0.93;;
7173;SDS011;3628;48.654;8.932;2022-07-15T07:38:25;3.30;;;1.20;;
7173;SDS011;3628;48.654;8.932;2022-07-15T07:40:50;1.75;;;0.90;;
7173;SDS011;3628;48.654;8.932;2022-07-15T07:43:16;3.28;;;1.15;;
7173;SDS011;3628;48.654;8.932;2022-07-15T07:45:43;2.47;;;1.10;;
7173;SDS011;3628;48.654;8.932;2022-07-15T07:48:08;2.08;;;0.90;;
7173;SDS011;3628;48.654;8.932;2022-07-15T07:50:34;2.38;;;0.95;;
7173;SDS011;3628;48.654;8.932;2022-07-15T07:53:00;2.40;;;1.10;;
7173;SDS011;3628;48.654;8.932;2022-07-15T07:55:26;5.00;;;1.13;;
7173;SDS011;3628;48.654;8.932;2022-07-15T07:57:52;2.40;;;0.82;;
7173;SDS011;3628;48.654;8.932;2022-07-15T08:00:20;2.97;;;0.98;;
7173;SDS011;3628;48.654;8.932;2022-07-15T08:02:47;1.95;;;1.08;;
7173;SDS011;3628;48.654;8.932;2022-07-15T08:05:13;3.35;;;0.88;;
7173;SDS011;3628;48.654;8.932;2022-07-15T08:07:40;1.33;;;1.05;;
7173;SDS011;3628;48.654;8.932;2022-07-15T08:10:06;2.42;;;1.00;;
7173;SDS011;3628;48.654;8.932;2022-07-15T08:12:32;2.08;;;0.90;;
7173;SDS011;3628;48.654;8.932;2022-07-15T08:14:58;2.40;;;0.90;;
7173;SDS011;3628;48.654;8.932;2022-07-15T08:17:24;2.65;;;0.82;;
7173;SDS011;3628;48.654;8.932;2022-07-15T08:19:50;1.83;;;1.00;;
7173;SDS011;3628;48.654;8.932;2022-07-15T08:22:15;1.80;;;1.00;;
7173;SDS011;3628;48.654;8.932;2022-07-15T08:24:41;2.25;;;0.95;;
7173;SDS011;3628;48.654;8.932;2022-07-15T08:27:07;1.55;;;0.80;;
7173;SDS011;3628;48.654;8.932;2022-07-15T08:29:33;1.77;;;1.15;;
7173;SDS011;3628;48.654;8.932;2022-07-15T08:31:59;2.17;;;1.00;;
7173;SDS011;3628;48.654;8.932;2022-07-15T08:34:25;2.15;;;1.17;;
7173;SDS011;3628;48.654;8.932;2022-07-15T08:36:51;2.60;;;0.98;;
7173;SDS011;3628;48.654;8.932;2022-07-15T08:39:17;3.97;;;1.20;;
7173;SDS011;3628;48.654;8.932;2022-07-15T08:41:42;1.83;;;0.80;;
7173;SDS011;3628;48.654;8.932;2022-07-15T08:44:08;3.38;;;1.08;;
7173;SDS011;3628;48.654;8.932;2022-07-15T08:46:34;1.83;;;1.05;;
7173;SDS011;3628;48.654;8.932;2022-07-15T08:49:07;1.23;;;0.80;;
7173;SDS011;3628;48.654;8.932;2022-07-15T08:51:37;2.88;;;1.38;;
7173;SDS011;3628;48.654;8.932;2022-07-15T08:54:07;3.88;;;1.00;;
7173;SDS011;3628;48.654;8.932;2022-07-15T08:56:34;2.25;;;1.10;;
7173;SDS011;3628;48.654;8.932;2022-07-15T08:59:01;2.80;;;1.10;;
7173;SDS011;3628;48.654;8.932;2022-07-15T09:01:27;4.45;;;1.10;;
7173;SDS011;3628;48.654;8.932;2022-07-15T09:03:53;3.05;;;1.20;;
7173;SDS011;3628;48.654;8.932;2022-07-15T09:12:06;3.22;;;1.10;;
7173;SDS011;3628;48.654;8.932;2022-07-15T09:14:33;2.45;;;1.23;;
7173;SDS011;3628;48.654;8.932;2022-07-15T09:22:32;2.13;;;1.30;;
7173;SDS011;3628;48.654;8.932;2022-07-15T09:25:18;2.00;;;1.20;;
7173;SDS011;3628;48.654;8.932;2022-07-15T09:27:45;2.28;;;1.40;;
7173;SDS011;3628;48.654;8.932;2022-07-15T09:33:02;2.85;;;1.13;;
7173;SDS011;3628;48.654;8.932;2022-07-15T09:36:17;1.00;;;0.93;;
7173;SDS011;3628;48.654;8.932;2022-07-15T09:43:53;3.53;;;1.48;;
7173;SDS011;3628;48.654;8.932;2022-07-15T09:46:22;6.65;;;1.40;;
7173;SDS011;3628;48.654;8.932;2022-07-15T09:48:50;2.55;;;1.50;;
7173;SDS011;3628;48.654;8.932;2022-07-15T09:51:17;3.28;;;1.48;;
7173;SDS011;3628;48.654;8.932;2022-07-15T09:53:44;1.92;;;1.30;;
7173;SDS011;3628;48.654;8.932;2022-07-15T09:56:13;3.50;;;1.20;;
7173;SDS011;3628;48.654;8.932;2022-07-15T09:58:41;6.50;;;1.15;;
7173;SDS011;3628;48.654;8.932;2022-07-15T10:01:09;2.85;;;1.17;;
7173;SDS011;3628;48.654;8.932;2022-07-15T10:03:36;2.83;;;1.30;;
7173;SDS011;3628;48.654;8.932;2022-07-15T10:06:03;9.38;;;1.67;;
7173;SDS011;3628;48.654;8.932;2022-07-15T10:08:29;4.10;;;1.13;;
7173;SDS011;3628;48.654;8.932;2022-07-15T10:10:56;2.75;;;1.40;;
7173;SDS011;3628;48.654;8.932;2022-07-15T10:21:00;4.82;;;1.95;;
7173;SDS011;3628;48.654;8.932;2022-07-15T10:29:04;7.57;;;1.45;;
7173;SDS011;3628;48.654;8.932;2022-07-15T10:31:32;5.20;;;1.40;;
7173;SDS011;3628;48.654;8.932;2022-07-15T10:36:37;3.67;;;1.40;;
7173;SDS011;3628;48.654;8.932;2022-07-15T10:39:06;2.85;;;1.40;;
7173;SDS011;3628;48.654;8.932;2022-07-15T10:44:32;3.47;;;1.30;;
7173;SDS011;3628;48.654;8.932;2022-07-15T10:49:38;1.98;;;1.48;;
7173;SDS011;3628;48.654;8.932;2022-07-15T10:57:20;2.17;;;1.40;;
7173;SDS011;3628;48.654;8.932;2022-07-15T11:00:06;3.60;;;1.65;;
7173;SDS011;3628;48.654;8.932;2022-07-15T11:13:39;3.63;;;1.50;;
7173;SDS011;3628;48.654;8.932;2022-07-15T11:16:14;2.85;;;1.33;;
7173;SDS011;3628;48.654;8.932;2022-07-15T11:18:48;2.80;;;1.35;;
7173;SDS011;3628;48.654;8.932;2022-07-15T11:21:16;2.22;;;1.60;;
7173;SDS011;3628;48.654;8.932;2022-07-15T11:23:42;3.88;;;1.40;;
7173;SDS011;3628;48.654;8.932;2022-07-15T11:26:08;2.97;;;1.48;;
7173;SDS011;3628;48.654;8.932;2022-07-15T11:28:35;5.50;;;1.80;;
7173;SDS011;3628;48.654;8.932;2022-07-15T11:31:00;4.22;;;1.45;;
7173;SDS011;3628;48.654;8.932;2022-07-15T11:33:26;12.65;;;1.90;;
7173;SDS011;3628;48.654;8.932;2022-07-15T11:38:20;5.43;;;1.60;;
7173;SDS011;3628;48.654;8.932;2022-07-15T11:40:53;2.67;;;1.40;;
7173;SDS011;3628;48.654;8.932;2022-07-15T11:43:42;2.53;;;1.08;;
7173;SDS011;3628;48.654;8.932;2022-07-15T11:46:26;4.55;;;1.27;;
7173;SDS011;3628;48.654;8.932;2022-07-15T11:48:54;3.20;;;1.35;;
7173;SDS011;3628;48.654;8.932;2022-07-15T11:51:26;2.45;;;1.40;;
7173;SDS011;3628;48.654;8.932;2022-07-15T11:53:55;3.65;;;1.30;;
7173;SDS011;3628;48.654;8.932;2022-07-15T11:56:22;5.55;;;1.63;;
7173;SDS011;3628;48.654;8.932;2022-07-15T11:58:52;5.00;;;1.50;;
7173;SDS011;3628;48.654;8.932;2022-07-15T12:01:21;3.80;;;1.30;;
7173;SDS011;3628;48.654;8.932;2022-07-15T12:03:50;2.58;;;1.40;;
7173;SDS011;3628;48.654;8.932;2022-07-15T12:08:48;3.55;;;1.40;;
7173;SDS011;3628;48.654;8.932;2022-07-15T12:13:44;6.53;;;1.52;;
7173;SDS011;3628;48.654;8.932;2022-07-15T12:16:21;3.05;;;1.30;;
7173;SDS011;3628;48.654;8.932;2022-07-15T12:18:51;2.92;;;1.70;;
7173;SDS011;3628;48.654;8.932;2022-07-15T12:21:18;1.92;;;1.17;;
7173;SDS011;3628;48.654;8.932;2022-07-15T12:23:57;2.00;;;1.35;;
7173;SDS011;3628;48.654;8.932;2022-07-15T12:29:15;4.18;;;1.10;;
7173;SDS011;3628;48.654;8.932;2022-07-15T12:31:55;3.85;;;1.48;;
7173;SDS011;3628;48.654;8.932;2022-07-15T12:34:46;3.83;;;1.58;;
7173;SDS011;3628;48.654;8.932;2022-07-15T12:37:11;1.48;;;1.20;;
7173;SDS011;3628;48.654;8.932;2022-07-15T12:42:30;2.80;;;1.48;;
7173;SDS011;3628;48.654;8.932;2022-07-15T12:50:28;2.95;;;1.48;;
7173;SDS011;3628;48.654;8.932;2022-07-15T12:53:19;4.03;;;1.42;;
7173;SDS011;3628;48.654;8.932;2022-07-15T12:55:47;3.53;;;1.27;;
7173;SDS011;3628;48.654;8.932;2022-07-15T12:58:14;2.92;;;1.40;;
7173;SDS011;3628;48.654;8.932;2022-07-15T13:00:50;4.28;;;1.55;;
7173;SDS011;3628;48.654;8.932;2022-07-15T13:03:17;3.22;;;1.40;;
7173;SDS011;3628;48.654;8.932;2022-07-15T13:05:49;3.90;;;1.48;;
7173;SDS011;3628;48.654;8.932;2022-07-15T13:08:17;2.63;;;1.30;;
7173;SDS011;3628;48.654;8.932;2022-07-15T13:10:45;2.20;;;1.30;;
7173;SDS011;3628;48.654;8.932;2022-07-15T13:13:14;2.95;;;1.58;;
7173;SDS011;3628;48.654;8.932;2022-07-15T13:15:42;2.75;;;1.40;;
7173;SDS011;3628;48.654;8.932;2022-07-15T13:18:08;3.83;;;1.40;;
7173;SDS011;3628;48.654;8.932;2022-07-15T13:20:34;3.30;;;1.48;;
7173;SDS011;3628;48.654;8.932;2022-07-15T13:23:00;4.57;;;1.20;;
7173;SDS011;3628;48.654;8.932;2022-07-15T13:25:26;2.60;;;1.40;;
7173;SDS011;3628;48.654;8.932;2022-07-15T13:27:52;2.08;;;1.20;;
7173;SDS011;3628;48.654;8.932;2022-07-15T13:30:18;1.65;;;1.30;;
7173;SDS011;3628;48.654;8.932;2022-07-15T13:32:44;2.17;;;1.48;;
7173;SDS011;3628;48.654;8.932;2022-07-15T13:35:10;1.58;;;1.10;;
7173;SDS011;3628;48.654;8.932;2022-07-15T13:37:36;6.93;;;1.83;;
7173;SDS011;3628;48.654;8.932;2022-07-15T13:40:04;2.80;;;1.73;;
7173;SDS011;3628;48.654;8.932;2022-07-15T13:42:31;3.53;;;1.20;;
7173;SDS011;3628;48.654;8.932;2022-07-15T13:44:56;6.25;;;2.05;;
7173;SDS011;3628;48.654;8.932;2022-07-15T13:47:22;4.88;;;1.45;;
7173;SDS011;3628;48.654;8.932;2022-07-15T13:49:48;2.42;;;1.23;;
7173;SDS011;3628;48.654;8.932;2022-07-15T13:52:33;3.53;;;1.20;;
7173;SDS011;3628;48.654;8.932;2022-07-15T13:54:58;2.38;;;1.38;;
7173;SDS011;3628;48.654;8.932;2022-07-15T13:57:24;5.07;;;1.70;;
7173;SDS011;3628;48.654;8.932;2022-07-15T13:59:50;2.92;;;1.45;;
7173;SDS011;3628;48.654;8.932;2022-07-15T14:02:15;6.43;;;1.48;;
7173;SDS011;3628;48.654;8.932;2022-07-15T14:04:41;3.75;;;1.13;;
7173;SDS011;3628;48.654;8.932;2022-07-15T14:07:06;2.63;;;1.20;;
7173;SDS011;3628;48.654;8.932;2022-07-15T14:09:32;4.18;;;1.58;;
7173;SDS011;3628;48.654;8.932;2022-07-15T14:11:59;3.70;;;1.33;;
7173;SDS011;3628;48.654;8.932;2022-07-15T14:14:26;6.35;;;1.80;;
7173;SDS011;3628;48.654;8.932;2022-07-15T14:16:52;4.00;;;1.38;;
7173;SDS011;3628;48.654;8.932;2022-07-15T14:19:18;4.25;;;1.20;;
7173;SDS011;3628;48.654;8.932;2022-07-15T14:21:44;2.65;;;1.48;;
7173;SDS011;3628;48.654;8.932;2022-07-15T14:24:09;4.05;;;1.48;;
7173;SDS011;3628;48.654;8.932;2022-07-15T14:26:35;2.80;;;1.40;;
7173;SDS011;3628;48.654;8.932;2022-07-15T14:29:01;3.33;;;1.50;;
7173;SDS011;3628;48.654;8.932;2022-07-15T14:31:26;2.53;;;1.27;;
7173;SDS011;3628;48.654;8.932;2022-07-15T14:33:52;1.73;;;1.20;;
7173;SDS011;3628;48.654;8.932;2022-07-15T14:36:18;5.82;;;1.20;;
7173;SDS011;3628;48.654;8.932;2022-07-15T14:38:43;3.85;;;1.30;;
7173;SDS011;3628;48.654;8.932;2022-07-15T14:41:09;2.85;;;1.50;;
7173;SDS011;3628;48.654;8.932;2022-07-15T14:43:34;1.98;;;1.40;;
7173;SDS011;3628;48.654;8.932;2022-07-15T14:46:00;3.00;;;1.20;;
7173;SDS011;3628;48.654;8.932;2022-07-15T14:48:26;3.15;;;1.20;;
7173;SDS011;3628;48.654;8.932;2022-07-15T14:50:55;2.92;;;1.40;;
7173;SDS011;3628;48.654;8.932;2022-07-15T14:53:21;3.55;;;1.40;;
7173;SDS011;3628;48.654;8.932;2022-07-15T14:55:46;3.45;;;1.25;;
7173;SDS011;3628;48.654;8.932;2022-07-15T14:58:12;2.53;;;1.40;;
7173;SDS011;3628;48.654;8.932;2022-07-15T15:00:41;3.60;;;1.17;;
7173;SDS011;3628;48.654;8.932;2022-07-15T15:03:07;5.13;;;1.40;;
7173;SDS011;3628;48.654;8.932;2022-07-15T15:05:33;3.03;;;1.65;;
7173;SDS011;3628;48.654;8.932;2022-07-15T15:07:59;1.95;;;1.30;;
7173;SDS011;3628;48.654;8.932;2022-07-15T15:10:25;1.70;;;1.45;;
7173;SDS011;3628;48.654;8.932;2022-07-15T15:12:51;3.72;;;1.48;;
7173;SDS011;3628;48.654;8.932;2022-07-15T15:15:16;2.90;;;1.27;;
7173;SDS011;3628;48.654;8.932;2022-07-15T15:17:42;2.15;;;1.20;;
7173;SDS011;3628;48.654;8.932;2022-07-15T15:20:09;2.35;;;1.42;;
7173;SDS011;3628;48.654;8.932;2022-07-15T15:22:36;3.88;;;1.35;;
7173;SDS011;3628;48.654;8.932;2022-07-15T15:25:03;2.95;;;1.25;;
7173;SDS011;3628;48.654;8.932;2022-07-15T15:27:29;2.72;;;1.25;;
7173;SDS011;3628;48.654;8.932;2022-07-15T15:29:55;4.57;;;1.60;;
7173;SDS011;3628;48.654;8.932;2022-07-15T15:32:21;2.35;;;1.35;;
7173;SDS011;3628;48.654;8.932;2022-07-15T15:34:46;2.17;;;1.17;;
7173;SDS011;3628;48.654;8.932;2022-07-15T15:37:13;3.33;;;1.27;;
7173;SDS011;3628;48.654;8.932;2022-07-15T15:39:38;4.32;;;1.30;;
7173;SDS011;3628;48.654;8.932;2022-07-15T15:42:04;2.28;;;1.10;;
7173;SDS011;3628;48.654;8.932;2022-07-15T15:44:31;1.92;;;1.27;;
7173;SDS011;3628;48.654;8.932;2022-07-15T15:46:56;4.40;;;1.13;;
7173;SDS011;3628;48.654;8.932;2022-07-15T15:49:22;1.77;;;1.33;;
7173;SDS011;3628;48.654;8.932;2022-07-15T15:51:47;2.15;;;1.25;;
7173;SDS011;3628;48.654;8.932;2022-07-15T15:54:13;1.80;;;1.20;;
7173;SDS011;3628;48.654;8.932;2022-07-15T15:56:39;3.08;;;1.13;;
7173;SDS011;3628;48.654;8.932;2022-07-15T15:59:04;1.30;;;1.10;;
7173;SDS011;3628;48.654;8.932;2022-07-15T16:01:31;3.08;;;1.38;;
7173;SDS011;3628;48.654;8.932;2022-07-15T16:03:57;3.45;;;1.27;;
7173;SDS011;3628;48.654;8.932;2022-07-15T16:06:23;2.25;;;1.30;;
7173;SDS011;3628;48.654;8.932;2022-07-15T16:08:49;2.88;;;1.15;;
7173;SDS011;3628;48.654;8.932;2022-07-15T16:11:16;2.45;;;1.20;;
7173;SDS011;3628;48.654;8.932;2022-07-15T16:13:41;2.03;;;1.00;;
7173;SDS011;3628;48.654;8.932;2022-07-15T16:16:07;3.45;;;1.23;;
7173;SDS011;3628;48.654;8.932;2022-07-15T16:18:33;3.67;;;1.20;;
7173;SDS011;3628;48.654;8.932;2022-07-15T16:20:58;2.15;;;1.20;;
7173;SDS011;3628;48.654;8.932;2022-07-15T16:23:24;2.78;;;1.42;;
7173;SDS011;3628;48.654;8.932;2022-07-15T16:25:50;1.30;;;0.88;;
7173;SDS011;3628;48.654;8.932;2022-07-15T16:28:16;4.32;;;1.40;;
7173;SDS011;3628;48.654;8.932;2022-07-15T16:30:42;1.85;;;1.27;;